Time;durP1;ratioP1;P1;durP2;ratioP2;P2;SDS_P1;SDS_P2;PMS_P1;PMS_P2;Temp;Humidity;BMP_temperature;BMP_pressure;BME280_temperature;BME280_humidity;BME280_pressure;Samples;Min_cycle;Max_cycle;Signal;HPM_P1;HPM_P2
2024/02/17 00:00:19;;;;;;;56.90;25.40;;;;;;;6.43;59.76;101392.19;107925;1256;59564;-67
2024/02/17 00:02:46;;;;;;;52.00;23.50;;;;;;;6.48;59.55;101396.55;107868;1260;72975;-69
2024/02/17 00:05:13;;;;;;;57.80;23.90;;;;;;;6.23;59.91;101400.71;107954;1260;59389;-69
2024/02/17 00:07:40;;;;;;;59.10;25.10;;;;;;;6.19;60.08;101396.35;107883;1257;71783;-67
2024/02/17 00:10:07;;;;;;;53.60;25.60;;;;;;;6.10;60.19;101400.17;107957;1260;60282;-65
2024/02/17 00:12:34;;;;;;;55.80;25.30;;;;;;;6.23;60.11;101399.84;107971;1257;59998;-64
2024/02/17 00:15:02;;;;;;;58.90;24.50;;;;;;;6.21;59.90;101393.92;108010;1257;73047;-66
2024/02/17 00:17:28;;;;;;;51.90;23.80;;;;;;;6.22;60.05;101389.20;107975;1256;69087;-65
2024/02/17 00:19:55;;;;;;;55.00;25.20;;;;;;;6.21;60.40;101390.60;107970;1257;72326;-66
2024/02/17 00:22:22;;;;;;;50.80;23.30;;;;;;;6.32;60.03;101391.31;107962;1257;61342;-65
2024/02/17 00:24:49;;;;;;;54.20;26.00;;;;;;;6.25;59.77;101388.88;108032;1256;60012;-67
2024/02/17 00:27:15;;;;;;;53.30;24.70;;;;;;;6.24;59.95;101382.92;107914;1257;72898;-66
2024/02/17 00:29:42;;;;;;;49.40;24.80;;;;;;;6.18;59.89;101381.19;107934;1257;70360;-66
2024/02/17 00:32:08;;;;;;;56.50;25.60;;;;;;;6.16;60.28;101379.77;107894;1256;72721;-65
2024/02/17 00:34:35;;;;;;;49.60;24.10;;;;;;;6.04;60.31;101383.42;107889;1257;59106;-67
2024/02/17 00:37:02;;;;;;;54.80;24.40;;;;;;;6.13;60.29;101379.77;107609;1256;60215;-67
2024/02/17 00:39:29;;;;;;;59.20;24.70;;;;;;;6.25;59.78;101369.16;107897;1258;73585;-66
2024/02/17 00:41:56;;;;;;;53.50;23.50;;;;;;;6.08;60.07;101371.23;107862;1257;68925;-67
2024/02/17 00:44:22;;;;;;;59.20;27.40;;;;;;;5.90;60.60;101375.88;107887;1260;59531;-65
2024/02/17 00:46:49;;;;;;;70.30;31.50;;;;;;;5.95;60.61;101376.41;107901;1258;59695;-66
2024/02/17 00:49:15;;;;;;;64.50;27.10;;;;;;;5.85;60.90;101372.38;107914;1257;60469;-65
2024/02/17 00:51:42;;;;;;;65.30;28.60;;;;;;;5.75;61.21;101376.19;107958;1257;71916;-67
2024/02/17 00:54:09;;;;;;;60.20;26.60;;;;;;;5.85;61.08;101370.80;108004;1257;70808;-66
2024/02/17 00:56:36;;;;;;;60.80;26.30;;;;;;;5.76;61.28;101366.77;107972;1260;73209;-65
2024/02/17 00:59:02;;;;;;;61.00;26.80;;;;;;;5.81;60.80;101368.01;107881;1257;62192;-67
2024/02/17 01:01:29;;;;;;;64.00;28.50;;;;;;;5.55;61.41;101369.68;107962;1256;60277;-67
2024/02/17 01:04:05;;;;;;;66.00;28.90;;;;;;;5.76;60.92;101362.77;107873;1260;71821;-65
2024/02/17 01:06:35;;;;;;;70.20;26.70;;;;;;;6.01;60.41;101363.02;107841;1255;70378;-66
2024/02/17 01:09:02;;;;;;;59.10;25.60;;;;;;;5.95;60.39;101360.75;107966;1257;73098;-67
2024/02/17 01:11:29;;;;;;;64.40;28.20;;;;;;;5.93;60.18;101360.21;107902;1260;60246;-67
2024/02/17 01:13:56;;;;;;;58.10;25.90;;;;;;;5.80;60.70;101359.30;107930;1256;60035;-66
2024/02/17 01:16:22;;;;;;;59.90;27.20;;;;;;;5.75;60.74;101359.29;107899;1256;73137;-66
2024/02/17 01:18:49;;;;;;;66.60;29.80;;;;;;;5.89;60.61;101364.02;107904;1257;70313;-67
2024/02/17 01:21:16;;;;;;;60.40;28.70;;;;;;;5.98;60.00;101363.70;107917;1256;72703;-66
2024/02/17 01:23:43;;;;;;;62.60;29.40;;;;;;;5.96;60.33;101366.31;107972;1257;60507;-66
2024/02/17 01:26:10;;;;;;;60.70;27.80;;;;;;;5.90;60.34;101364.89;107956;1256;60302;-66
2024/02/17 01:28:37;;;;;;;59.70;25.70;;;;;;;5.85;60.58;101367.67;107940;1257;73017;-65
2024/02/17 01:31:03;;;;;;;68.90;28.20;;;;;;;5.78;60.67;101365.91;107921;1256;70760;-66
2024/02/17 01:33:30;;;;;;;61.70;26.50;;;;;;;5.61;61.31;101367.08;107936;1256;71170;-65
2024/02/17 01:35:57;;;;;;;62.30;27.00;;;;;;;5.66;60.96;101363.09;107893;1257;61346;-63
2024/02/17 01:38:23;;;;;;;66.30;28.60;;;;;;;5.76;60.82;101361.20;107855;1256;59493;-66
2024/02/17 01:40:50;;;;;;;66.90;28.60;;;;;;;5.75;60.72;101361.20;107897;1260;71712;-66
2024/02/17 01:43:17;;;;;;;65.10;28.10;;;;;;;5.94;60.44;101359.34;108030;1257;69445;-67
2024/02/17 01:45:44;;;;;;;63.30;26.70;;;;;;;5.83;60.78;101356.51;107963;1255;72574;-67
2024/02/17 01:48:11;;;;;;;75.30;30.50;;;;;;;5.69;61.26;101350.90;107987;1257;59901;-66
2024/02/17 01:50:38;;;;;;;64.10;26.30;;;;;;;5.79;60.89;101347.79;108053;1255;59497;-66
2024/02/17 01:53:04;;;;;;;61.30;26.70;;;;;;;5.63;61.29;101346.35;107774;1262;59670;-64
2024/02/17 01:55:31;;;;;;;60.90;26.60;;;;;;;5.63;61.09;101348.80;107849;1257;59323;-65
2024/02/17 01:57:57;;;;;;;54.30;23.20;;;;;;;5.89;60.30;101346.08;107809;1257;59552;-67
2024/02/17 02:00:24;;;;;;;60.00;27.10;;;;;;;5.99;60.29;101343.33;107942;1257;61228;-66
2024/02/17 02:02:51;;;;;;;55.20;24.50;;;;;;;5.96;60.11;101343.83;107827;1257;60543;-66
2024/02/17 02:05:17;;;;;;;55.30;25.80;;;;;;;5.62;61.05;101347.91;107986;1256;72986;-67
2024/02/17 02:07:44;;;;;;;56.20;22.40;;;;;;;5.50;61.35;101346.33;107990;1257;67845;-66
2024/02/17 02:10:12;;;;;;;57.40;25.70;;;;;;;5.42;61.50;101344.39;107913;1259;72945;-66
2024/02/17 02:12:39;;;;;;;58.50;26.10;;;;;;;5.40;61.51;101343.85;107954;1256;61306;-66
2024/02/17 02:15:10;;;;;;;57.90;27.00;;;;;;;5.56;61.15;101337.45;107978;1257;60316;-63
2024/02/17 02:17:37;;;;;;;60.50;26.90;;;;;;;5.59;61.17;101334.85;107969;1257;73034;-67
2024/02/17 02:20:09;;;;;;;58.20;24.80;;;;;;;5.71;60.78;101334.70;108188;1254;70635;-66
2024/02/17 02:22:36;;;;;;;59.20;24.80;;;;;;;5.61;61.09;101337.46;107959;1254;71662;-66
2024/02/17 02:25:05;;;;;;;50.50;24.10;;;;;;;5.52;61.37;101336.23;108165;1254;61346;-66
2024/02/17 02:27:32;;;;;;;66.80;26.60;;;;;;;5.68;60.99;101339.92;107997;1254;59399;-65
2024/02/17 02:29:59;;;;;;;64.20;27.20;;;;;;;5.66;60.90;101340.96;108027;1254;73061;-67
2024/02/17 02:32:26;;;;;;;57.70;26.00;;;;;;;5.43;61.61;101338.80;108010;1254;70220;-66
2024/02/17 02:34:53;;;;;;;60.80;27.40;;;;;;;5.44;61.68;101337.93;108181;1256;71967;-66
2024/02/17 02:37:20;;;;;;;55.20;23.10;;;;;;;5.48;61.74;101337.25;108172;1253;59746;-65
2024/02/17 02:39:47;;;;;;;55.50;23.90;;;;;;;5.50;61.52;101339.02;108225;1256;59394;-66
2024/02/17 02:42:14;;;;;;;55.20;23.70;;;;;;;5.40;62.03;101334.78;108185;1253;73354;-67
2024/02/17 02:44:41;;;;;;;64.40;28.80;;;;;;;5.38;62.23;101338.43;108133;1254;70688;-66
2024/02/17 02:47:07;;;;;;;56.50;24.60;;;;;;;5.50;61.74;101333.78;108103;1254;59638;-67
2024/02/17 02:49:34;;;;;;;59.40;26.40;;;;;;;5.35;62.25;101334.23;108219;1253;61500;-66
2024/02/17 02:52:00;;;;;;;68.00;27.60;;;;;;;5.41;62.22;101327.65;108186;1254;60035;-66
2024/02/17 02:54:27;;;;;;;63.90;26.50;;;;;;;5.17;62.75;101326.52;108258;1254;73428;-66
2024/02/17 02:56:54;;;;;;;64.30;28.80;;;;;;;5.05;63.16;101320.54;108265;1254;70117;-67
2024/02/17 02:59:20;;;;;;;67.50;29.30;;;;;;;5.51;61.93;101317.41;108220;1256;72513;-66
2024/02/17 03:01:47;;;;;;;62.30;27.70;;;;;;;5.46;62.11;101314.59;108180;1254;61894;-67
2024/02/17 03:04:14;;;;;;;67.40;29.20;;;;;;;5.43;62.06;101315.13;108187;1253;59541;-67
2024/02/17 03:06:40;;;;;;;58.90;25.10;;;;;;;5.48;61.67;101314.95;108086;1253;71794;-67
2024/02/17 03:09:07;;;;;;;64.20;28.30;;;;;;;5.33;62.23;101314.90;108181;1253;70892;-67
2024/02/17 03:11:34;;;;;;;70.00;28.70;;;;;;;5.24;62.33;101316.79;108136;1254;71424;-67
2024/02/17 03:14:00;;;;;;;70.80;32.10;;;;;;;5.27;62.29;101318.02;108116;1254;60329;-66
2024/02/17 03:16:29;;;;;;;61.50;28.90;;;;;;;5.61;61.27;101315.85;108185;1254;60315;-67
2024/02/17 03:18:56;;;;;;;72.00;32.00;;;;;;;5.68;61.12;101315.54;108161;1254;73846;-66
2024/02/17 03:21:23;;;;;;;78.60;32.20;;;;;;;5.73;61.02;101320.41;108140;1254;70369;-66
2024/02/17 03:23:49;;;;;;;70.50;29.20;;;;;;;5.86;60.55;101314.16;108191;1253;72549;-66
2024/02/17 03:26:16;;;;;;;64.00;26.20;;;;;;;5.64;61.19;101314.30;108273;1254;60827;-66
2024/02/17 03:28:43;;;;;;;70.40;30.30;;;;;;;5.52;61.71;101311.31;108242;1253;60325;-66
2024/02/17 03:31:10;;;;;;;74.00;31.50;;;;;;;5.60;61.60;101315.68;108239;1254;73679;-65
2024/02/17 03:33:37;;;;;;;68.50;28.80;;;;;;;5.71;61.26;101317.80;108228;1256;70295;-66
2024/02/17 03:36:05;;;;;;;77.30;28.50;;;;;;;5.69;61.09;101316.75;108225;1254;71726;-66
2024/02/17 03:38:32;;;;;;;70.20;28.90;;;;;;;5.63;61.19;101317.43;108179;1253;61162;-66
2024/02/17 03:40:59;;;;;;;72.70;29.80;;;;;;;5.58;61.28;101319.33;108220;1253;60296;-67
2024/02/17 03:43:26;;;;;;;77.40;31.10;;;;;;;5.62;61.55;101316.74;108213;1256;74340;-66
2024/02/17 03:45:52;;;;;;;70.20;28.10;;;;;;;5.53;61.68;101314.80;108131;1254;70668;-65
2024/02/17 03:48:19;;;;;;;74.30;31.20;;;;;;;5.56;61.60;101314.11;108138;1252;72698;-66
2024/02/17 03:50:49;;;;;;;77.40;31.10;;;;;;;5.70;61.27;101306.13;108191;1254;61061;-66
2024/02/17 03:53:19;;;;;;;75.30;32.70;;;;;;;5.69;61.15;101304.73;108191;1256;60114;-66
2024/02/17 03:55:46;;;;;;;79.00;34.00;;;;;;;5.88;60.77;101298.65;108278;1253;71640;-66
2024/02/17 03:58:13;;;;;;;83.10;32.40;;;;;;;5.76;60.82;101298.46;108195;1254;69311;-64
2024/02/17 04:00:40;;;;;;;76.40;31.70;;;;;;;5.57;61.47;101300.00;108175;1254;73350;-66
2024/02/17 04:03:06;;;;;;;59.20;23.30;;;;;;;5.76;61.18;101296.55;108165;1253;61179;-69
2024/02/17 04:05:37;;;;;;;73.10;30.50;;;;;;;5.58;61.65;101287.64;108148;1254;60664;-66
2024/02/17 04:08:04;;;;;;;76.20;31.40;;;;;;;5.62;61.63;101294.44;108252;1254;73594;-66
2024/02/17 04:10:31;;;;;;;83.30;34.20;;;;;;;5.54;61.81;101286.58;108235;1253;70222;-66
2024/02/17 04:12:58;;;;;;;74.90;27.10;;;;;;;5.87;60.79;101284.20;108209;1254;72531;-66
2024/02/17 04:15:25;;;;;;;80.00;31.90;;;;;;;5.81;60.87;101277.55;108137;1253;61185;-65
2024/02/17 04:17:55;;;;;;;80.90;33.10;;;;;;;5.61;61.50;101281.71;108263;1253;60426;-66
2024/02/17 04:20:22;;;;;;;80.50;34.50;;;;;;;5.80;61.06;101281.39;108179;1253;73558;-67
2024/02/17 04:22:49;;;;;;;80.80;31.60;;;;;;;6.00;60.51;101279.50;108153;1253;69390;-67
2024/02/17 04:25:16;;;;;;;71.40;31.50;;;;;;;5.79;61.01;101279.81;108157;1254;72492;-63
2024/02/17 04:27:42;;;;;;;71.70;29.00;;;;;;;5.80;61.03;101286.29;108230;1253;61066;-63
2024/02/17 04:30:10;;;;;;;81.70;33.00;;;;;;;5.64;61.43;101286.42;108275;1254;60365;-65
2024/02/17 04:32:37;;;;;;;79.70;33.80;;;;;;;5.77;61.14;101283.83;108190;1254;73667;-66
2024/02/17 04:35:05;;;;;;;78.60;34.00;;;;;;;5.82;61.12;101284.70;108160;1253;69569;-66
2024/02/17 04:37:32;;;;;;;87.50;36.80;;;;;;;5.98;60.64;101282.46;108191;1253;71371;-64
2024/02/17 04:39:58;;;;;;;86.90;34.90;;;;;;;6.00;60.58;101278.64;108193;1253;60989;-66
2024/02/17 04:42:26;;;;;;;86.90;35.50;;;;;;;5.95;60.53;101274.79;108142;1253;60376;-65
2024/02/17 04:44:53;;;;;;;82.30;31.30;;;;;;;5.80;60.77;101274.59;108164;1254;72419;-66
2024/02/17 04:47:19;;;;;;;95.10;38.50;;;;;;;5.79;60.88;101274.41;108211;1253;70755;-66
2024/02/17 04:49:46;;;;;;;71.40;27.30;;;;;;;5.73;61.44;101274.58;108131;1253;73462;-68
2024/02/17 04:52:14;;;;;;;92.20;35.40;;;;;;;5.77;61.00;101272.14;108182;1253;61260;-67
2024/02/17 04:54:40;;;;;;;98.00;37.70;;;;;;;5.68;61.47;101273.18;108163;1253;60201;-67
2024/02/17 04:57:07;;;;;;;95.60;39.40;;;;;;;5.89;60.79;101269.20;108207;1256;73842;-67
2024/02/17 04:59:34;;;;;;;92.20;36.80;;;;;;;5.92;60.76;101268.86;108186;1253;70816;-66
2024/02/17 05:02:01;;;;;;;93.60;36.70;;;;;;;5.64;61.82;101271.45;108158;1254;73293;-67
2024/02/17 05:04:28;;;;;;;91.20;34.80;;;;;;;5.58;61.96;101274.57;108206;1253;61458;-67
2024/02/17 05:06:55;;;;;;;102.90;38.10;;;;;;;5.66;61.83;101273.53;108203;1254;60327;-67
2024/02/17 05:09:22;;;;;;;101.00;36.50;;;;;;;5.73;61.57;101272.67;108232;1253;73684;-66
2024/02/17 05:11:49;;;;;;;98.50;37.60;;;;;;;5.55;62.08;101281.34;108185;1254;68169;-66
2024/02/17 05:14:16;;;;;;;94.30;37.40;;;;;;;5.63;61.96;101276.84;108222;1254;73516;-66
2024/02/17 05:16:43;;;;;;;97.00;37.10;;;;;;;5.38;62.52;101278.34;108271;1254;60412;-66
2024/02/17 05:19:12;;;;;;;100.50;39.00;;;;;;;5.44;62.60;101281.67;108232;1254;60357;-67
2024/02/17 05:21:38;;;;;;;83.20;31.40;;;;;;;5.49;62.65;101278.73;108230;1253;73719;-68
2024/02/17 05:24:06;;;;;;;95.90;38.00;;;;;;;5.41;62.82;101278.02;108234;1253;69037;-67
2024/02/17 05:26:34;;;;;;;98.90;39.40;;;;;;;5.64;62.16;101275.27;108174;1254;71188;-66
2024/02/17 05:29:02;;;;;;;105.90;39.20;;;;;;;5.63;62.22;101275.27;108301;1253;60396;-67
2024/02/17 05:31:29;;;;;;;95.20;35.00;;;;;;;5.75;62.11;101276.86;108248;1254;60363;-67
2024/02/17 05:33:56;;;;;;;101.10;38.20;;;;;;;5.73;62.20;101281.55;108217;1254;74087;-67
2024/02/17 05:36:23;;;;;;;76.00;27.90;;;;;;;5.65;62.19;101288.17;108256;1254;70304;-66
2024/02/17 05:38:49;;;;;;;83.60;32.30;;;;;;;5.45;62.93;101287.08;108105;1256;73069;-67
2024/02/17 05:41:17;;;;;;;72.70;28.80;;;;;;;5.53;62.59;101283.09;108271;1254;60422;-67
2024/02/17 05:43:43;;;;;;;87.90;31.20;;;;;;;5.55;62.38;101288.67;108195;1254;60274;-67
2024/02/17 05:46:10;;;;;;;88.60;35.10;;;;;;;5.56;62.60;101293.02;108256;1256;72375;-66
2024/02/17 05:48:37;;;;;;;98.30;36.60;;;;;;;5.44;63.19;101291.42;108183;1253;70811;-68
2024/02/17 05:51:04;;;;;;;91.70;35.50;;;;;;;5.55;62.97;101293.73;108183;1253;72701;-67
2024/02/17 05:53:31;;;;;;;77.20;28.80;;;;;;;5.50;63.25;101293.89;108225;1253;61214;-66
2024/02/17 05:55:57;;;;;;;85.80;28.60;;;;;;;5.43;63.28;101294.56;108257;1254;60116;-67
2024/02/17 05:58:24;;;;;;;87.90;34.00;;;;;;;5.55;62.77;101294.95;108238;1253;74400;-67
2024/02/17 06:00:51;;;;;;;95.80;38.00;;;;;;;5.47;62.94;101293.88;108134;1254;70726;-67
2024/02/17 06:03:18;;;;;;;89.00;34.80;;;;;;;5.58;62.41;101294.77;108235;1253;72140;-67
2024/02/17 06:05:44;;;;;;;74.40;30.80;;;;;;;5.51;62.64;101295.64;108193;1253;60344;-66
2024/02/17 06:08:11;;;;;;;77.00;31.60;;;;;;;5.34;63.38;101300.98;108071;1253;60339;-67
2024/02/17 06:10:38;;;;;;;77.40;30.70;;;;;;;5.38;62.87;101298.55;108216;1253;60556;-67
2024/02/17 06:13:06;;;;;;;85.00;35.60;;;;;;;5.32;63.04;101299.77;108241;1253;70375;-67
2024/02/17 06:15:32;;;;;;;89.60;35.70;;;;;;;5.43;62.37;101295.09;108239;1253;71191;-66
2024/02/17 06:23:30;;;;;;;71.40;29.50;;;;;;;5.28;62.27;101299.74;108064;1253;72968;-67
2024/02/17 06:25:56;;;;;;;70.60;29.10;;;;;;;5.33;62.05;101301.67;108142;1253;70338;-67
2024/02/17 06:28:23;;;;;;;73.40;33.20;;;;;;;5.35;61.86;101301.86;108121;1253;60419;-68
2024/02/17 06:30:49;;;;;;;68.20;29.90;;;;;;;5.55;60.72;101304.70;108164;1256;59724;-67
2024/02/17 06:33:16;;;;;;;62.10;28.10;;;;;;;5.57;60.42;101304.00;108205;1253;60470;-66
2024/02/17 06:35:43;;;;;;;68.00;30.50;;;;;;;5.48;60.14;101306.25;108237;1253;73650;-68
2024/02/17 06:38:09;;;;;;;62.80;28.40;;;;;;;5.51;60.19;101300.86;108200;1253;60277;-67
2024/02/17 06:40:37;;;;;;;54.60;22.80;;;;;;;5.56;59.56;101298.44;108154;1253;72647;-67
2024/02/17 06:43:03;;;;;;;60.30;25.60;;;;;;;5.43;59.86;101303.45;108149;1254;60172;-67
2024/02/17 06:45:30;;;;;;;55.00;22.30;;;;;;;5.42;59.64;101302.75;108187;1253;60017;-67
2024/02/17 06:47:57;;;;;;;54.10;23.60;;;;;;;5.37;59.65;101308.65;108046;1257;73536;-67
2024/02/17 06:50:24;;;;;;;53.80;26.30;;;;;;;5.59;58.96;101303.14;108040;1253;67936;-67
2024/02/17 06:52:52;;;;;;;70.30;24.90;;;;;;;5.67;58.64;101300.71;108009;1253;73280;-67
2024/02/17 06:55:19;;;;;;;46.70;20.40;;;;;;;5.44;59.07;101303.62;108113;1253;61742;-67
2024/02/17 06:57:45;;;;;;;60.90;25.50;;;;;;;5.30;59.42;101306.02;108014;1253;60337;-68
2024/02/17 07:00:13;;;;;;;53.00;21.20;;;;;;;5.65;58.72;101306.29;107966;1256;73945;-67
2024/02/17 07:02:40;;;;;;;51.90;22.70;;;;;;;5.56;58.96;101308.36;108135;1253;70296;-67
2024/02/17 07:05:07;;;;;;;54.00;22.80;;;;;;;5.68;58.64;101315.35;108054;1253;72705;-67
2024/02/17 07:07:34;;;;;;;37.00;15.10;;;;;;;5.53;59.15;101312.00;108040;1253;61058;-67
2024/02/17 07:10:03;;;;;;;48.50;22.00;;;;;;;5.60;58.98;101312.20;108085;1253;60457;-67
2024/02/17 07:12:34;;;;;;;50.30;23.80;;;;;;;5.67;58.52;101307.85;108058;1253;72737;-68
2024/02/17 07:15:02;;;;;;;58.00;25.10;;;;;;;5.67;58.54;101310.11;108097;1254;70203;-67
2024/02/17 07:17:29;;;;;;;46.90;20.40;;;;;;;5.68;58.35;101310.30;108082;1256;72525;-67
2024/02/17 07:19:55;;;;;;;55.80;22.80;;;;;;;5.81;58.24;101314.52;108045;1253;59020;-67
2024/02/17 07:22:22;;;;;;;57.90;25.50;;;;;;;5.68;58.43;101312.92;108025;1253;60416;-68
2024/02/17 07:24:51;;;;;;;58.40;25.60;;;;;;;5.87;58.33;101311.38;108077;1253;73877;-67
2024/02/17 07:27:17;;;;;;;57.90;24.40;;;;;;;5.91;58.55;101310.70;108125;1253;69425;-67
2024/02/17 07:29:44;;;;;;;55.90;25.70;;;;;;;5.93;58.55;101312.80;108046;1253;72500;-68
2024/02/17 07:32:11;;;;;;;60.70;26.50;;;;;;;5.85;58.53;101314.17;108050;1253;61169;-67
2024/02/17 07:34:41;;;;;;;49.40;20.90;;;;;;;6.04;57.91;101311.93;108249;1254;61093;-67
2024/02/17 07:37:08;;;;;;;57.40;25.00;;;;;;;5.92;58.25;101308.95;108246;1253;73631;-67
2024/02/17 07:39:37;;;;;;;65.70;28.30;;;;;;;6.02;58.06;101307.77;108232;1254;70369;-67
2024/02/17 07:42:08;;;;;;;60.00;27.30;;;;;;;6.07;57.87;101311.59;108297;1253;72625;-67
2024/02/17 07:44:36;;;;;;;;;;;;;;;6.20;57.47;101307.77;108207;1253;61007;-67
2024/02/17 07:47:04;;;;;;;66.30;26.70;;;;;;;6.17;57.38;101311.60;108261;1252;60325;-67
2024/02/17 07:49:32;;;;;;;57.90;24.10;;;;;;;6.27;57.24;101306.36;108236;1254;74405;-67
2024/02/17 07:51:59;;;;;;;58.30;23.40;;;;;;;6.33;57.05;101305.48;108219;1254;70279;-67
2024/02/17 07:54:25;;;;;;;55.20;24.00;;;;;;;6.21;57.37;101297.98;108222;1253;71696;-67
2024/02/17 07:56:52;;;;;;;67.60;29.50;;;;;;;6.09;57.55;101298.17;108158;1252;61152;-67
2024/02/17 07:59:19;;;;;;;67.60;29.40;;;;;;;6.05;57.68;101292.58;108146;1252;60418;-67
2024/02/17 08:01:46;;;;;;;70.30;30.20;;;;;;;5.65;58.81;101297.92;108107;1254;73857;-68
2024/02/17 08:04:12;;;;;;;70.10;28.50;;;;;;;5.77;58.39;101290.80;108115;1254;69367;-67
2024/02/17 08:06:39;;;;;;;73.60;30.90;;;;;;;5.66;58.82;101294.10;108140;1253;72598;-67
2024/02/17 08:09:06;;;;;;;72.50;32.10;;;;;;;5.74;58.79;101288.01;108087;1254;60419;-67
2024/02/17 08:11:35;;;;;;;80.40;30.90;;;;;;;5.86;58.65;101286.45;108135;1256;60435;-67
2024/02/17 08:14:04;;;;;;;75.40;29.30;;;;;;;5.91;58.28;101289.95;108173;1253;73630;-67
2024/02/17 08:16:31;;;;;;;65.20;25.70;;;;;;;5.93;58.00;101286.13;108122;1254;70328;-66
2024/02/17 08:18:57;;;;;;;62.60;27.50;;;;;;;5.81;58.47;101287.33;108161;1254;60569;-67
2024/02/17 08:21:24;;;;;;;71.80;28.10;;;;;;;5.86;58.14;101280.70;108170;1253;60876;-67
2024/02/17 08:23:51;;;;;;;80.70;32.60;;;;;;;6.02;57.98;101277.95;108181;1253;60351;-67
2024/02/17 08:26:19;;;;;;;70.90;30.40;;;;;;;6.10;57.87;101279.16;108152;1253;74014;-67
2024/02/17 08:28:46;;;;;;;65.10;27.80;;;;;;;6.06;58.14;101273.92;108200;1253;71718;-67
2024/02/17 08:31:12;;;;;;;77.50;32.30;;;;;;;6.17;57.99;101271.14;108142;1254;60552;-67
2024/02/17 08:33:39;;;;;;;69.10;29.90;;;;;;;6.19;58.15;101271.84;108150;1252;60870;-67
2024/02/17 08:36:06;;;;;;;77.60;31.10;;;;;;;6.02;58.12;101269.75;108155;1254;60476;-67
2024/02/17 08:38:33;;;;;;;72.10;30.40;;;;;;;6.22;57.78;101269.92;108161;1256;73857;-67
2024/02/17 08:41:02;;;;;;;70.40;29.10;;;;;;;6.34;57.40;101270.08;108159;1254;70377;-68
2024/02/17 08:43:29;;;;;;;64.80;30.20;;;;;;;6.36;57.49;101263.45;108109;1253;72184;-67
2024/02/17 08:45:56;;;;;;;65.20;27.00;;;;;;;6.17;57.75;101259.46;108171;1252;60962;-68
2024/02/17 08:48:22;;;;;;;75.40;29.40;;;;;;;6.10;58.06;101264.52;108256;1253;60105;-67
2024/02/17 08:50:50;;;;;;;83.80;33.70;;;;;;;6.30;57.97;101262.93;108211;1253;72870;-67
2024/02/17 08:53:18;;;;;;;74.50;26.70;;;;;;;6.37;57.59;101260.64;108163;1253;70408;-67
2024/02/17 08:55:45;;;;;;;70.70;28.00;;;;;;;6.22;58.13;101263.29;108228;1256;71317;-68
2024/02/17 08:58:11;;;;;;;73.00;29.20;;;;;;;6.07;58.60;101260.87;108097;1254;60341;-68
2024/02/17 09:00:38;;;;;;;72.90;30.70;;;;;;;5.84;59.56;101264.84;108258;1253;60483;-67
2024/02/17 09:03:05;;;;;;;74.20;31.10;;;;;;;5.88;59.68;101266.05;108196;1253;74424;-67
2024/02/17 09:05:32;;;;;;;69.80;26.70;;;;;;;5.86;59.93;101266.77;108159;1254;70003;-67
2024/02/17 09:07:58;;;;;;;79.40;31.30;;;;;;;5.90;59.98;101268.16;108102;1253;72491;-67
2024/02/17 09:10:25;;;;;;;67.60;26.70;;;;;;;6.12;59.58;101272.02;108181;1253;60583;-67
2024/02/17 09:12:52;;;;;;;70.40;30.00;;;;;;;6.19;59.45;101272.20;108155;1254;60252;-67
2024/02/17 09:15:19;;;;;;;65.70;25.70;;;;;;;6.22;59.32;101269.05;108228;1254;73675;-67
2024/02/17 09:17:47;;;;;;;72.60;31.70;;;;;;;6.12;59.83;101270.45;108175;1256;70330;-67
2024/02/17 09:20:14;;;;;;;81.50;32.80;;;;;;;6.30;59.29;101265.02;108219;1254;72468;-66
2024/02/17 09:22:41;;;;;;;77.70;31.20;;;;;;;6.23;59.67;101265.56;108197;1254;61031;-67
2024/02/17 09:25:07;;;;;;;69.30;28.30;;;;;;;6.30;59.60;101261.89;108181;1254;60408;-67
2024/02/17 09:27:34;;;;;;;73.50;30.90;;;;;;;6.15;60.13;101261.02;108194;1252;73970;-67
2024/02/17 09:30:04;;;;;;;68.80;29.20;;;;;;;6.13;60.44;101256.69;108172;1253;70092;-67
2024/02/17 09:32:31;;;;;;;70.70;30.90;;;;;;;6.22;60.13;101257.17;108255;1253;72449;-67
2024/02/17 09:34:58;;;;;;;79.60;30.70;;;;;;;6.38;60.07;101251.41;108221;1254;60919;-67
2024/02/17 09:37:24;;;;;;;78.80;32.60;;;;;;;6.35;60.04;101251.41;108147;1254;60457;-67
2024/02/17 09:39:51;;;;;;;71.50;30.20;;;;;;;6.42;59.95;101249.84;108157;1254;61119;-67
2024/02/17 09:42:17;;;;;;;75.20;30.90;;;;;;;6.37;60.31;101248.27;108186;1254;70422;-67
2024/02/17 09:44:46;;;;;;;66.30;27.10;;;;;;;6.28;60.47;101245.85;108198;1254;72796;-67
2024/02/17 09:47:13;;;;;;;62.80;25.80;;;;;;;6.22;60.72;101240.27;108103;1254;60845;-67
2024/02/17 09:49:40;;;;;;;70.80;29.60;;;;;;;6.08;61.38;101237.16;108212;1253;60312;-66
2024/02/17 09:52:07;;;;;;;73.20;31.00;;;;;;;6.23;60.89;101234.00;108169;1254;73809;-68
2024/02/17 09:54:33;;;;;;;90.40;34.70;;;;;;;6.41;60.59;101231.18;108226;1254;69873;-68
2024/02/17 09:57:03;;;;;;;82.80;32.70;;;;;;;6.26;60.96;101229.97;107995;1253;72679;-67
2024/02/17 09:59:29;;;;;;;97.50;32.70;;;;;;;6.42;60.78;101229.77;108260;1253;61141;-67
2024/02/17 10:01:57;;;;;;;78.30;31.50;;;;;;;6.53;60.42;101230.96;108232;1253;60388;-68
2024/02/17 10:04:24;;;;;;;80.60;33.10;;;;;;;6.60;60.34;101228.68;108190;1253;73850;-67
2024/02/17 10:07:01;;;;;;;85.60;34.70;;;;;;;6.49;60.67;101229.77;108221;1256;68159;-67
2024/02/17 10:09:28;;;;;;;83.90;34.20;;;;;;;6.38;61.01;101226.98;108195;1252;72746;-67
2024/02/17 10:11:58;;;;;;;74.80;29.00;;;;;;;6.64;60.51;101224.30;108193;1254;61267;-67
2024/02/17 10:14:27;;;;;;;82.10;31.30;;;;;;;6.44;61.04;101226.97;108238;1256;59480;-70
2024/02/17 10:16:58;;;;;;;90.60;35.20;;;;;;;6.46;61.17;101218.77;108256;1253;72632;-68
2024/02/17 10:19:25;;;;;;;88.00;36.00;;;;;;;6.50;60.97;101214.05;108224;1253;69155;-68
2024/02/17 10:21:53;;;;;;;81.50;32.30;;;;;;;6.70;60.53;101208.58;108240;1254;73681;-68
2024/02/17 10:24:21;;;;;;;90.00;33.90;;;;;;;6.77;60.36;101201.75;108180;1253;60246;-67
2024/02/17 10:26:54;;;;;;;93.20;35.50;;;;;;;6.70;60.47;101197.58;108207;1253;61442;-67
2024/02/17 10:29:25;;;;;;;91.60;36.70;;;;;;;6.57;61.29;101193.62;108259;1256;73665;-67
2024/02/17 10:31:51;;;;;;;87.50;34.00;;;;;;;6.55;61.67;101191.01;108217;1253;70181;-67
2024/02/17 10:34:18;;;;;;;99.30;38.20;;;;;;;6.62;61.37;101183.13;108342;1252;72723;-67
2024/02/17 10:36:49;;;;;;;93.00;37.00;;;;;;;6.91;60.55;101179.67;108145;1253;60681;-67
2024/02/17 10:39:15;;;;;;;95.50;37.30;;;;;;;6.86;60.73;101176.55;108219;1253;60332;-67
2024/02/17 10:41:43;;;;;;;91.20;37.10;;;;;;;6.70;61.14;101176.80;108196;1253;73026;-67
2024/02/17 10:44:10;;;;;;;118.90;43.40;;;;;;;6.79;61.08;101173.80;108161;1254;70027;-67
2024/02/17 10:46:38;;;;;;;132.70;47.30;;;;;;;6.84;60.95;101170.46;108207;1254;72611;-67
2024/02/17 10:49:15;;;;;;;123.40;45.20;;;;;;;6.89;60.76;101170.27;108121;1254;61282;-68
2024/02/17 10:51:50;;;;;;;128.30;45.90;;;;;;;6.79;61.19;101167.34;108150;1253;60428;-68
2024/02/17 10:54:22;;;;;;;120.00;46.40;;;;;;;6.83;61.20;101160.69;108246;1253;72368;-69
2024/02/17 10:56:49;;;;;;;128.70;46.60;;;;;;;6.98;60.92;101148.04;108137;1256;69041;-67
2024/02/17 10:59:15;;;;;;;123.30;42.00;;;;;;;7.04;60.86;101148.88;108197;1254;71574;-68
2024/02/17 11:01:42;;;;;;;120.20;38.80;;;;;;;6.72;61.76;101149.05;108008;1254;60268;-67
2024/02/17 11:04:09;;;;;;;173.40;54.20;;;;;;;6.63;61.96;101144.39;107950;1253;60412;-67
2024/02/17 11:06:37;;;;;;;171.30;54.70;;;;;;;6.78;61.43;101135.23;108008;1253;73887;-67
2024/02/17 11:09:04;;;;;;;160.10;51.10;;;;;;;6.55;62.25;101129.08;107959;1253;70333;-67
2024/02/17 11:11:32;;;;;;;166.00;52.50;;;;;;;6.66;62.12;101130.23;107876;1256;72863;-67
2024/02/17 11:13:59;;;;;;;177.80;56.80;;;;;;;6.54;62.43;101129.77;108064;1253;60340;-67